createdAt,value
2023-05-06T00:00:26.875Z,69.72
2023-05-06T00:03:20.838Z,69.78
2023-05-06T00:05:57.709Z,69.87
2023-05-06T00:08:33.942Z,69.87
2023-05-06T00:11:10.483Z,70.05
2023-05-06T00:13:46.847Z,70.21
2023-05-06T00:16:24.323Z,70.20
2023-05-06T00:19:00.760Z,70.40
2023-05-06T00:21:37.189Z,70.59
2023-05-06T00:24:14.333Z,70.58
2023-05-06T00:26:50.749Z,70.83
2023-05-06T00:29:27.200Z,70.80
2023-05-06T00:32:03.682Z,70.93
2023-05-06T00:34:40.344Z,70.99
2023-05-06T00:37:16.636Z,70.91
2023-05-06T00:39:53.075Z,71.16
2023-05-06T00:42:29.375Z,71.30
2023-05-06T00:45:06.547Z,71.26
2023-05-06T00:47:43.507Z,71.50
2023-05-06T00:50:20.505Z,71.54
2023-05-06T00:52:58.127Z,71.64
2023-05-06T00:55:35.698Z,71.72
2023-05-06T00:58:12.307Z,71.70
2023-05-06T01:00:49.578Z,71.91
2023-05-06T01:03:26.304Z,72.13
2023-05-06T01:06:20.640Z,72.10
2023-05-06T01:09:15.769Z,72.21
2023-05-06T01:12:01.652Z,72.29
2023-05-06T01:14:48.145Z,72.44
2023-05-06T01:17:28.341Z,72.57
2023-05-06T01:20:10.908Z,72.48
2023-05-06T01:22:48.218Z,72.50
2023-05-06T01:25:30.337Z,72.52
2023-05-06T01:28:10.406Z,72.56
2023-05-06T01:31:05.587Z,72.60
2023-05-06T01:33:52.276Z,72.67
2023-05-06T01:36:38.931Z,72.74
2023-05-06T01:39:25.861Z,72.89
2023-05-06T01:42:04.922Z,73.10
2023-05-06T01:44:44.599Z,73.02
2023-05-06T01:47:23.164Z,73.14
2023-05-06T01:50:01.216Z,73.15
2023-05-06T01:52:37.613Z,73.13
2023-05-06T01:55:14.798Z,73.29
2023-05-06T01:57:51.060Z,73.26
2023-05-06T02:00:28.383Z,73.26
2023-05-06T02:03:05.023Z,73.34
2023-05-06T02:05:41.488Z,73.46
2023-05-06T02:08:18.070Z,73.41
2023-05-06T02:10:55.061Z,73.53
2023-05-06T02:13:31.738Z,73.42
2023-05-06T02:16:09.792Z,73.49
2023-05-06T02:18:46.542Z,73.40
2023-05-06T02:21:22.960Z,73.45
2023-05-06T02:23:59.425Z,73.47
2023-05-06T02:26:35.783Z,73.59
2023-05-06T02:29:12.746Z,73.57
2023-05-06T02:31:49.025Z,73.66
2023-05-06T02:34:26.672Z,73.80
2023-05-06T02:37:03.559Z,73.96
2023-05-06T02:39:39.882Z,74.00
2023-05-06T02:42:17.980Z,74.05
2023-05-06T02:44:54.958Z,74.20
2023-05-06T02:47:31.314Z,74.20
2023-05-06T02:50:09.010Z,74.28
2023-05-06T02:52:45.252Z,74.30
2023-05-06T02:55:22.594Z,74.38
2023-05-06T02:57:58.926Z,74.39
2023-05-06T03:00:35.403Z,74.41
2023-05-06T03:03:11.844Z,74.40
2023-05-06T03:05:48.088Z,74.50
2023-05-06T03:08:24.400Z,74.53
2023-05-06T03:11:01.680Z,74.40
2023-05-06T03:13:38.585Z,74.49
2023-05-06T03:16:19.208Z,74.55
2023-05-06T03:18:55.079Z,74.75
2023-05-06T03:21:31.719Z,74.63
2023-05-06T03:24:10.076Z,74.63
2023-05-06T03:26:46.637Z,74.66
2023-05-06T03:29:23.151Z,74.72
2023-05-06T03:32:03.586Z,74.56
2023-05-06T03:34:40.182Z,74.56
2023-05-06T03:37:17.406Z,74.55
2023-05-06T03:39:57.637Z,74.55
2023-05-06T03:42:35.666Z,74.67
2023-05-06T03:45:14.087Z,74.69
2023-05-06T03:47:50.613Z,74.67
2023-05-06T03:50:27.969Z,74.61
2023-05-06T03:53:04.375Z,74.65
2023-05-06T03:55:42.079Z,74.52
2023-05-06T03:58:19.193Z,74.46
2023-05-06T04:00:55.672Z,74.29
2023-05-06T04:03:32.598Z,74.11
2023-05-06T04:06:10.605Z,74.08
2023-05-06T04:08:46.858Z,73.95
2023-05-06T04:11:24.253Z,73.85
2023-05-06T04:14:01.279Z,73.75
2023-05-06T04:16:37.969Z,73.57
2023-05-06T04:19:14.593Z,73.38
2023-05-06T04:21:50.874Z,73.36
2023-05-06T04:24:28.687Z,73.19
2023-05-06T04:27:06.644Z,73.13
2023-05-06T04:29:43.410Z,73.04
2023-05-06T04:32:21.112Z,72.78
2023-05-06T04:34:58.115Z,72.62
2023-05-06T04:37:34.719Z,72.53
2023-05-06T04:40:17.585Z,72.33
2023-05-06T04:42:54.721Z,71.85
2023-05-06T04:45:34.726Z,71.09
2023-05-06T04:48:12.518Z,70.49
2023-05-06T04:50:49.253Z,69.57
2023-05-06T04:53:26.435Z,68.97
2023-05-06T04:56:03.940Z,68.19
2023-05-06T04:58:41.080Z,68.16
2023-05-06T05:01:19.414Z,67.70
2023-05-06T05:03:56.303Z,67.88
2023-05-06T05:06:33.286Z,67.54
2023-05-06T05:09:10.709Z,66.88
2023-05-06T05:11:47.741Z,66.36
2023-05-06T05:14:24.390Z,65.77
2023-05-06T05:17:01.114Z,64.72
2023-05-06T05:19:38.067Z,63.90
2023-05-06T05:22:14.789Z,63.14
2023-05-06T05:24:51.170Z,62.72
2023-05-06T05:27:27.572Z,62.85
2023-05-06T05:30:05.153Z,62.34
2023-05-06T05:32:42.451Z,62.71
2023-05-06T05:35:19.472Z,62.80
2023-05-06T05:37:56.560Z,63.52
2023-05-06T05:40:33.497Z,64.21
2023-05-06T05:43:10.201Z,64.26
2023-05-06T05:45:47.492Z,64.80
2023-05-06T05:48:24.262Z,64.96
2023-05-06T05:51:01.624Z,65.19
2023-05-06T05:53:38.107Z,65.38
2023-05-06T05:56:15.128Z,65.75
2023-05-06T05:58:51.843Z,65.43
2023-05-06T06:01:29.948Z,64.52
2023-05-06T06:04:07.600Z,64.48
2023-05-06T06:06:44.596Z,64.42
2023-05-06T06:09:21.844Z,63.77
2023-05-06T06:11:59.139Z,62.97
2023-05-06T06:14:35.462Z,62.51
2023-05-06T06:17:12.186Z,60.79
2023-05-06T06:19:50.889Z,60.10
2023-05-06T06:22:27.632Z,59.97
2023-05-06T06:25:05.409Z,59.91
2023-05-06T06:27:42.184Z,59.76
2023-05-06T06:30:19.506Z,60.01
2023-05-06T06:32:59.246Z,60.53
2023-05-06T06:35:36.115Z,60.91
2023-05-06T06:38:12.321Z,61.24
2023-05-06T06:40:48.646Z,61.75
2023-05-06T06:43:25.228Z,62.39
2023-05-06T06:46:16.406Z,62.76
2023-05-06T06:48:52.775Z,62.82
2023-05-06T06:51:28.998Z,63.13
2023-05-06T06:54:05.385Z,63.28
2023-05-06T06:56:42.084Z,63.23
2023-05-06T06:59:18.453Z,63.40
2023-05-06T07:01:55.741Z,62.76
2023-05-06T07:04:32.265Z,62.34
2023-05-06T07:07:08.673Z,61.14
2023-05-06T07:09:44.898Z,60.89
2023-05-06T07:12:21.198Z,60.11
2023-05-06T07:14:57.438Z,59.28
2023-05-06T07:17:33.765Z,59.17
2023-05-06T07:20:13.867Z,59.98
2023-05-06T07:22:50.142Z,59.28
2023-05-06T07:25:28.154Z,59.66
2023-05-06T07:28:05.142Z,60.35
2023-05-06T07:30:44.050Z,60.01
2023-05-06T07:33:20.451Z,60.04
2023-05-06T07:35:57.324Z,60.54
2023-05-06T07:38:33.766Z,60.75
2023-05-06T07:41:10.689Z,61.12
2023-05-06T07:43:47.112Z,61.60
2023-05-06T07:46:23.682Z,61.90
2023-05-06T07:49:00.254Z,62.18
2023-05-06T07:51:36.654Z,62.42
2023-05-06T07:54:13.804Z,62.15
2023-05-06T07:56:50.079Z,62.23
2023-05-06T07:59:26.486Z,62.47
2023-05-06T08:02:03.625Z,62.13
2023-05-06T08:04:40.441Z,62.55
2023-05-06T08:07:17.420Z,62.56
2023-05-06T08:09:53.721Z,62.89
2023-05-06T08:12:30.787Z,61.73
2023-05-06T08:15:08.658Z,61.29
2023-05-06T08:17:45.514Z,60.41
2023-05-06T08:20:22.150Z,59.51
2023-05-06T08:23:00.910Z,58.34
2023-05-06T08:25:37.700Z,58.69
2023-05-06T08:28:14.340Z,58.47
2023-05-06T08:30:52.415Z,58.42
2023-05-06T08:33:30.970Z,58.70
2023-05-06T08:36:08.316Z,57.91
2023-05-06T08:38:49.141Z,57.90
2023-05-06T08:41:27.678Z,56.83
2023-05-06T08:44:06.605Z,56.86
2023-05-06T08:46:43.186Z,55.87
2023-05-06T08:49:20.622Z,56.40
2023-05-06T08:51:58.130Z,56.03
2023-05-06T08:54:37.168Z,55.86
2023-05-06T08:57:17.000Z,56.09
2023-05-06T08:59:53.644Z,55.33
2023-05-06T09:02:30.712Z,55.72
2023-05-06T09:05:09.999Z,55.53
2023-05-06T09:07:46.458Z,55.69
2023-05-06T09:10:23.046Z,55.90
2023-05-06T09:13:01.430Z,55.77
2023-05-06T09:15:48.532Z,55.71
2023-05-06T09:18:25.380Z,55.15
2023-05-06T09:21:05.476Z,54.89
2023-05-06T09:23:41.953Z,54.76
2023-05-06T09:26:18.739Z,53.37
2023-05-06T09:28:55.698Z,53.53
2023-05-06T09:31:33.212Z,54.14
2023-05-06T09:34:09.903Z,54.44
2023-05-06T09:36:46.334Z,54.37
2023-05-06T09:39:26.392Z,53.91
2023-05-06T09:42:03.128Z,53.94
2023-05-06T09:44:40.234Z,53.78
2023-05-06T09:47:17.362Z,54.48
2023-05-06T09:49:57.267Z,54.43
2023-05-06T09:52:34.755Z,54.04
2023-05-06T09:55:13.514Z,53.84
2023-05-06T09:57:52.116Z,54.12
2023-05-06T10:00:30.068Z,54.25
2023-05-06T10:03:07.906Z,54.95
2023-05-06T10:05:46.310Z,55.09
2023-05-06T10:08:25.130Z,54.37
2023-05-06T10:11:03.476Z,54.75
2023-05-06T10:13:42.272Z,54.77
2023-05-06T10:16:20.597Z,55.00
2023-05-06T10:18:59.681Z,54.74
2023-05-06T10:21:40.742Z,54.36
2023-05-06T10:24:25.288Z,54.27
2023-05-06T10:27:05.060Z,54.30
2023-05-06T10:29:43.311Z,54.05
2023-05-06T10:32:23.048Z,54.01
2023-05-06T10:35:11.623Z,53.85
2023-05-06T10:37:51.437Z,54.04
2023-05-06T10:40:28.903Z,53.75
2023-05-06T10:43:35.746Z,53.68
2023-05-06T10:46:15.999Z,53.48
2023-05-06T10:49:21.836Z,54.01
2023-05-06T10:52:18.887Z,54.35
2023-05-06T10:54:56.310Z,54.60
2023-05-06T10:57:44.677Z,53.35
2023-05-06T11:00:23.197Z,53.95
2023-05-06T11:03:07.583Z,54.72
2023-05-06T11:05:54.513Z,55.57
2023-05-06T11:08:31.472Z,55.94
2023-05-06T11:11:59.178Z,56.48
2023-05-06T11:14:37.974Z,57.00
2023-05-06T11:17:34.990Z,58.07
2023-05-06T11:20:29.015Z,59.09
2023-05-06T11:23:05.350Z,59.98
2023-05-06T11:25:47.855Z,61.38
2023-05-06T11:28:25.252Z,62.40
2023-05-06T11:31:03.210Z,63.95
2023-05-06T11:33:47.037Z,65.46
2023-05-06T11:36:24.242Z,67.28
2023-05-06T11:39:06.559Z,67.42
2023-05-06T11:41:46.269Z,68.51
2023-05-06T11:44:35.215Z,69.79
2023-05-06T11:47:13.387Z,70.79
2023-05-06T11:49:55.102Z,71.24
2023-05-06T11:52:33.320Z,71.66
2023-05-06T11:55:14.599Z,71.99
2023-05-06T11:57:51.392Z,72.62
2023-05-06T12:00:28.121Z,72.85
2023-05-06T12:03:05.196Z,73.05
2023-05-06T12:05:42.881Z,73.39
2023-05-06T12:08:27.436Z,73.48
2023-05-06T12:11:11.925Z,73.79
2023-05-06T12:13:49.343Z,73.94
2023-05-06T12:16:27.701Z,73.95
2023-05-06T12:19:05.849Z,74.19
2023-05-06T12:21:45.143Z,74.47
2023-05-06T12:24:31.276Z,74.82
2023-05-06T12:27:08.244Z,74.98
2023-05-06T12:29:54.503Z,75.17
2023-05-06T12:32:31.785Z,75.48
2023-05-06T12:35:09.733Z,75.63
2023-05-06T12:37:46.971Z,75.64
2023-05-06T12:40:24.252Z,75.90
2023-05-06T12:43:01.763Z,76.06
2023-05-06T12:45:39.609Z,76.39
2023-05-06T12:48:20.373Z,76.63
2023-05-06T12:50:56.839Z,76.42
2023-05-06T12:53:40.191Z,76.41
2023-05-06T12:56:17.621Z,76.36
2023-05-06T12:59:05.003Z,76.31
2023-05-06T13:01:41.507Z,76.44
2023-05-06T13:04:17.936Z,76.52
2023-05-06T13:06:55.724Z,76.84
2023-05-06T13:09:32.162Z,77.25
2023-05-06T13:12:10.069Z,77.59
2023-05-06T13:14:46.532Z,77.60
2023-05-06T13:17:24.662Z,77.77
2023-05-06T13:20:04.491Z,77.88
2023-05-06T13:22:53.755Z,78.02
2023-05-06T13:25:31.721Z,78.36
2023-05-06T13:28:08.598Z,78.57
2023-05-06T13:30:46.603Z,78.47
2023-05-06T13:33:23.498Z,78.58
2023-05-06T13:36:00.169Z,78.91
2023-05-06T13:38:36.849Z,78.95
2023-05-06T13:41:13.403Z,79.32
2023-05-06T13:43:49.971Z,79.44
2023-05-06T13:46:29.251Z,79.59
2023-05-06T13:49:05.826Z,79.61
2023-05-06T13:51:42.574Z,79.55
2023-05-06T13:54:19.327Z,79.69
2023-05-06T13:56:56.485Z,80.07
2023-05-06T13:59:33.110Z,80.30
2023-05-06T14:02:10.059Z,80.68
2023-05-06T14:04:47.490Z,80.90
2023-05-06T14:07:23.843Z,80.93
2023-05-06T14:10:00.301Z,80.78
2023-05-06T14:12:36.689Z,80.76
2023-05-06T14:15:15.709Z,80.98
2023-05-06T14:17:52.318Z,80.95
2023-05-06T14:20:29.114Z,80.89
2023-05-06T14:23:07.686Z,80.80
2023-05-06T14:25:45.150Z,81.02
2023-05-06T14:28:21.843Z,81.00
2023-05-06T14:30:59.601Z,81.13
2023-05-06T14:33:38.073Z,81.31
2023-05-06T14:36:20.946Z,81.51
2023-05-06T14:38:57.297Z,81.58
2023-05-06T14:41:33.787Z,81.73
2023-05-06T14:44:10.875Z,81.78
2023-05-06T14:46:47.169Z,81.79
2023-05-06T14:49:23.390Z,81.78
2023-05-06T14:51:59.820Z,81.89
2023-05-06T14:54:42.379Z,81.98
2023-05-06T14:57:19.060Z,82.04
2023-05-06T14:59:56.131Z,82.22
2023-05-06T15:02:32.714Z,82.21
2023-05-06T15:05:13.053Z,82.33
2023-05-06T15:07:49.732Z,82.58
2023-05-06T15:10:27.036Z,82.49
2023-05-06T15:13:04.183Z,82.32
2023-05-06T15:15:41.020Z,81.91
2023-05-06T15:18:18.549Z,81.61
2023-05-06T15:20:58.834Z,80.91
2023-05-06T15:23:35.799Z,80.70
2023-05-06T15:26:13.615Z,80.15
2023-05-06T15:28:51.839Z,79.75
2023-05-06T15:31:29.081Z,79.58
2023-05-06T15:34:05.864Z,79.55
2023-05-06T15:36:42.481Z,79.50
2023-05-06T15:39:19.391Z,78.31
2023-05-06T15:41:56.255Z,77.94
2023-05-06T15:44:34.800Z,77.82
2023-05-06T15:47:11.499Z,77.61
2023-05-06T15:49:54.843Z,77.62
2023-05-06T15:52:33.068Z,77.18
2023-05-06T15:55:13.594Z,77.22
2023-05-06T15:57:51.030Z,77.11
2023-05-06T16:00:29.286Z,76.92
2023-05-06T16:03:09.821Z,76.70
2023-05-06T16:05:49.142Z,76.64
2023-05-06T16:08:26.320Z,76.51
2023-05-06T16:11:03.316Z,76.64
2023-05-06T16:13:40.423Z,76.80
2023-05-06T16:16:17.672Z,76.86
2023-05-06T16:18:54.826Z,76.78
2023-05-06T16:21:32.103Z,76.32
2023-05-06T16:24:09.900Z,76.15
2023-05-06T16:26:47.005Z,76.05
2023-05-06T16:29:24.910Z,75.95
2023-05-06T16:32:02.988Z,76.13
2023-05-06T16:34:40.878Z,76.22
2023-05-06T16:37:20.149Z,76.13
2023-05-06T16:39:57.091Z,76.15
2023-05-06T16:42:33.870Z,76.30
2023-05-06T16:45:13.346Z,76.45
2023-05-06T16:47:50.968Z,76.44
2023-05-06T16:50:28.013Z,76.60
2023-05-06T16:53:07.208Z,76.48
2023-05-06T16:55:49.191Z,76.44
2023-05-06T16:58:26.047Z,76.44
2023-05-06T17:01:02.859Z,76.59
2023-05-06T17:03:40.480Z,76.68
2023-05-06T17:06:17.850Z,76.75
2023-05-06T17:08:54.363Z,76.86
2023-05-06T17:11:31.267Z,77.09
2023-05-06T17:14:08.811Z,77.10
2023-05-06T17:16:46.808Z,77.22
2023-05-06T17:19:24.463Z,77.21
2023-05-06T17:22:02.051Z,77.00
2023-05-06T17:24:39.389Z,77.10
2023-05-06T17:27:16.927Z,77.30
2023-05-06T17:29:54.653Z,77.44
2023-05-06T17:32:33.375Z,77.60
2023-05-06T17:35:12.599Z,77.76
2023-05-06T17:37:49.857Z,78.01
2023-05-06T17:40:28.029Z,78.10
2023-05-06T17:43:05.078Z,78.01
2023-05-06T17:45:43.214Z,78.08
2023-05-06T17:48:22.661Z,78.08
2023-05-06T17:51:04.991Z,77.96
2023-05-06T17:53:41.966Z,77.99
2023-05-06T17:56:20.310Z,77.90
2023-05-06T17:59:02.618Z,77.94
2023-05-06T18:01:40.457Z,78.01
2023-05-06T18:04:17.214Z,78.09
2023-05-06T18:06:54.233Z,78.14
2023-05-06T18:09:32.492Z,78.19
2023-05-06T18:12:10.798Z,78.32
2023-05-06T18:14:49.118Z,78.61
2023-05-06T18:17:26.736Z,78.84
2023-05-06T18:20:03.927Z,79.07
2023-05-06T18:22:43.064Z,79.24
2023-05-06T18:25:20.408Z,79.43
2023-05-06T18:27:57.895Z,79.48
2023-05-06T18:30:39.804Z,79.75
2023-05-06T18:33:17.346Z,80.03
2023-05-06T18:35:55.701Z,80.29
2023-05-06T18:38:32.812Z,80.38
2023-05-06T18:41:10.267Z,80.46
2023-05-06T18:43:47.912Z,80.47
2023-05-06T18:46:27.022Z,80.50
2023-05-06T18:49:04.667Z,80.68
2023-05-06T18:51:42.456Z,80.73
2023-05-06T18:54:23.094Z,81.07
2023-05-06T18:57:02.371Z,81.12
2023-05-06T18:59:39.654Z,81.28
2023-05-06T19:02:16.788Z,81.34
2023-05-06T19:04:54.401Z,81.45
2023-05-06T19:07:35.020Z,81.66
2023-05-06T19:10:16.800Z,81.80
2023-05-06T19:12:56.365Z,81.87
2023-05-06T19:15:35.469Z,81.97
2023-05-06T19:18:16.614Z,82.08
2023-05-06T19:20:55.942Z,82.37
2023-05-06T19:23:35.952Z,82.34
2023-05-06T19:26:17.549Z,82.55
2023-05-06T19:28:55.980Z,82.39
2023-05-06T19:31:36.692Z,82.33
2023-05-06T19:34:16.059Z,82.24
2023-05-06T19:36:55.870Z,82.29
2023-05-06T19:39:34.808Z,82.38
2023-05-06T19:42:19.259Z,82.52
2023-05-06T19:44:59.390Z,82.63
2023-05-06T19:47:41.072Z,82.63
2023-05-06T19:50:20.458Z,82.63
2023-05-06T19:52:58.641Z,82.66
2023-05-06T19:55:44.924Z,82.58
2023-05-06T19:58:31.164Z,82.55
2023-05-06T20:01:14.999Z,82.50
2023-05-06T20:03:53.688Z,82.44
2023-05-06T20:06:33.579Z,82.31
2023-05-06T20:09:17.297Z,82.28
2023-05-06T20:11:56.241Z,82.17
2023-05-06T20:14:33.893Z,82.09
2023-05-06T20:17:13.715Z,82.09
2023-05-06T20:19:57.465Z,81.94
2023-05-06T20:22:37.248Z,81.90
2023-05-06T20:25:20.465Z,81.87
2023-05-06T20:28:03.519Z,81.74
2023-05-06T20:30:43.589Z,81.71
2023-05-06T20:33:22.354Z,81.51
2023-05-06T20:36:00.296Z,81.39
2023-05-06T20:38:41.597Z,81.20
2023-05-06T20:41:29.708Z,81.15
2023-05-06T20:44:08.505Z,80.95
2023-05-06T20:46:46.761Z,80.78
2023-05-06T20:49:26.042Z,80.66
2023-05-06T20:52:07.983Z,80.64
2023-05-06T20:54:46.136Z,80.60
2023-05-06T20:57:25.033Z,80.48
2023-05-06T21:00:08.201Z,80.45
2023-05-06T21:02:46.292Z,80.46
2023-05-06T21:05:24.140Z,80.42
2023-05-06T21:08:01.562Z,80.34
2023-05-06T21:10:38.654Z,80.24
2023-05-06T21:13:16.230Z,80.18
2023-05-06T21:15:53.793Z,80.21
2023-05-06T21:18:31.597Z,80.05
2023-05-06T21:21:09.689Z,79.92
2023-05-06T21:23:46.841Z,79.77
2023-05-06T21:26:23.830Z,79.65
2023-05-06T21:29:00.913Z,79.64
2023-05-06T21:31:38.816Z,79.66
2023-05-06T21:34:17.662Z,79.62
2023-05-06T21:36:54.896Z,79.49
2023-05-06T21:39:34.500Z,79.47
2023-05-06T21:42:11.514Z,79.51
2023-05-06T21:44:48.691Z,79.60
2023-05-06T21:47:26.632Z,79.65
2023-05-06T21:50:03.747Z,79.66
2023-05-06T21:52:40.917Z,79.68
2023-05-06T21:55:18.025Z,79.69
2023-05-06T21:57:54.864Z,79.72
2023-05-06T22:00:32.139Z,79.77
2023-05-06T22:03:08.933Z,79.77
2023-05-06T22:05:45.763Z,79.70
2023-05-06T22:08:22.481Z,79.67
2023-05-06T22:10:59.291Z,79.67
2023-05-06T22:13:35.728Z,79.55
2023-05-06T22:16:13.392Z,79.56
2023-05-06T22:18:49.993Z,79.62
2023-05-06T22:21:27.065Z,79.70
2023-05-06T22:24:04.013Z,79.72
2023-05-06T22:26:40.934Z,79.81
2023-05-06T22:29:17.197Z,79.89
2023-05-06T22:31:53.489Z,80.09
2023-05-06T22:34:29.924Z,80.21
2023-05-06T22:37:10.940Z,80.31
2023-05-06T22:39:47.606Z,80.38
2023-05-06T22:42:24.045Z,80.51
2023-05-06T22:45:00.510Z,80.63
2023-05-06T22:47:37.006Z,80.70
2023-05-06T22:50:15.668Z,80.79
2023-05-06T22:52:52.363Z,80.86
2023-05-06T22:55:29.035Z,80.90
2023-05-06T22:58:05.421Z,80.90
2023-05-06T23:00:43.517Z,81.00
2023-05-06T23:03:20.333Z,81.16
2023-05-06T23:05:56.864Z,81.21
2023-05-06T23:08:33.322Z,81.33
2023-05-06T23:11:09.691Z,81.54
2023-05-06T23:13:45.972Z,81.67
2023-05-06T23:16:23.623Z,81.71
2023-05-06T23:19:00.632Z,81.82
2023-05-06T23:21:36.954Z,82.01
2023-05-06T23:24:14.497Z,82.04
2023-05-06T23:26:52.117Z,82.22
2023-05-06T23:29:28.613Z,82.24
2023-05-06T23:32:04.876Z,82.31
2023-05-06T23:34:41.170Z,82.32
2023-05-06T23:37:17.697Z,82.35
2023-05-06T23:39:54.558Z,82.33
2023-05-06T23:42:30.974Z,82.39
2023-05-06T23:45:08.766Z,82.43
2023-05-06T23:47:45.390Z,82.57
2023-05-06T23:50:22.265Z,82.55
2023-05-06T23:52:58.892Z,82.53
2023-05-06T23:55:35.868Z,82.57
2023-05-06T23:58:12.592Z,82.53
